sensor_id;sensor_type;location;lat;lon;timestamp;P1;durP1;ratioP1;P2;durP2;ratioP2
12420;SDS011;6275;43.688;1.408;2023-06-19T00:01:46;0.00;;;0.00;;
12420;SDS011;6275;43.688;1.408;2023-06-19T00:04:13;0.00;;;0.00;;
12420;SDS011;6275;43.688;1.408;2023-06-19T00:06:40;0.00;;;0.00;;
12420;SDS011;6275;43.688;1.408;2023-06-19T00:09:08;0.00;;;0.00;;
12420;SDS011;6275;43.688;1.408;2023-06-19T00:11:35;0.00;;;0.00;;
12420;SDS011;6275;43.688;1.408;2023-06-19T00:14:02;0.00;;;0.00;;
12420;SDS011;6275;43.688;1.408;2023-06-19T00:16:30;0.00;;;0.00;;
12420;SDS011;6275;43.688;1.408;2023-06-19T00:18:58;0.00;;;0.00;;
12420;SDS011;6275;43.688;1.408;2023-06-19T00:21:25;0.00;;;0.00;;
12420;SDS011;6275;43.688;1.408;2023-06-19T00:23:53;0.00;;;0.00;;
12420;SDS011;6275;43.688;1.408;2023-06-19T00:26:21;0.00;;;0.00;;
12420;SDS011;6275;43.688;1.408;2023-06-19T00:28:49;0.00;;;0.00;;
12420;SDS011;6275;43.688;1.408;2023-06-19T00:31:16;0.00;;;0.00;;
12420;SDS011;6275;43.688;1.408;2023-06-19T00:33:45;0.00;;;0.00;;
12420;SDS011;6275;43.688;1.408;2023-06-19T00:36:16;0.00;;;0.00;;
12420;SDS011;6275;43.688;1.408;2023-06-19T00:38:47;0.00;;;0.00;;
12420;SDS011;6275;43.688;1.408;2023-06-19T00:41:15;0.00;;;0.00;;
12420;SDS011;6275;43.688;1.408;2023-06-19T00:43:43;0.00;;;0.00;;
12420;SDS011;6275;43.688;1.408;2023-06-19T00:46:11;0.00;;;0.00;;
12420;SDS011;6275;43.688;1.408;2023-06-19T00:48:38;0.00;;;0.00;;
12420;SDS011;6275;43.688;1.408;2023-06-19T00:51:06;0.00;;;0.00;;
12420;SDS011;6275;43.688;1.408;2023-06-19T00:53:33;0.00;;;0.00;;
12420;SDS011;6275;43.688;1.408;2023-06-19T00:56:03;0.00;;;0.00;;
12420;SDS011;6275;43.688;1.408;2023-06-19T00:58:31;0.00;;;0.00;;
12420;SDS011;6275;43.688;1.408;2023-06-19T01:00:58;0.00;;;0.00;;
12420;SDS011;6275;43.688;1.408;2023-06-19T01:03:34;0.00;;;0.00;;
12420;SDS011;6275;43.688;1.408;2023-06-19T01:06:05;0.00;;;0.00;;
12420;SDS011;6275;43.688;1.408;2023-06-19T01:11:06;0.00;;;0.00;;
12420;SDS011;6275;43.688;1.408;2023-06-19T01:13:53;0.00;;;0.00;;
12420;SDS011;6275;43.688;1.408;2023-06-19T01:16:24;0.00;;;0.00;;
12420;SDS011;6275;43.688;1.408;2023-06-19T01:18:52;0.00;;;0.00;;
12420;SDS011;6275;43.688;1.408;2023-06-19T01:21:20;0.00;;;0.00;;
12420;SDS011;6275;43.688;1.408;2023-06-19T01:23:47;0.00;;;0.00;;
12420;SDS011;6275;43.688;1.408;2023-06-19T01:26:16;0.00;;;0.00;;
12420;SDS011;6275;43.688;1.408;2023-06-19T01:28:44;0.00;;;0.00;;
12420;SDS011;6275;43.688;1.408;2023-06-19T01:31:13;0.00;;;0.00;;
12420;SDS011;6275;43.688;1.408;2023-06-19T01:33:42;0.00;;;0.00;;
12420;SDS011;6275;43.688;1.408;2023-06-19T01:36:10;0.00;;;0.00;;
12420;SDS011;6275;43.688;1.408;2023-06-19T01:38:37;0.00;;;0.00;;
12420;SDS011;6275;43.688;1.408;2023-06-19T01:41:05;0.00;;;0.00;;
12420;SDS011;6275;43.688;1.408;2023-06-19T01:43:33;0.00;;;0.00;;
12420;SDS011;6275;43.688;1.408;2023-06-19T01:46:01;0.00;;;0.00;;
12420;SDS011;6275;43.688;1.408;2023-06-19T01:48:29;0.00;;;0.00;;
12420;SDS011;6275;43.688;1.408;2023-06-19T01:50:56;0.00;;;0.00;;
12420;SDS011;6275;43.688;1.408;2023-06-19T01:53:23;0.00;;;0.00;;
12420;SDS011;6275;43.688;1.408;2023-06-19T01:55:51;0.00;;;0.00;;
12420;SDS011;6275;43.688;1.408;2023-06-19T01:58:18;0.00;;;0.00;;
12420;SDS011;6275;43.688;1.408;2023-06-19T02:00:45;0.00;;;0.00;;
12420;SDS011;6275;43.688;1.408;2023-06-19T02:03:13;0.00;;;0.00;;
12420;SDS011;6275;43.688;1.408;2023-06-19T02:05:41;0.00;;;0.00;;
12420;SDS011;6275;43.688;1.408;2023-06-19T02:08:08;0.00;;;0.00;;
12420;SDS011;6275;43.688;1.408;2023-06-19T02:10:36;0.00;;;0.00;;
12420;SDS011;6275;43.688;1.408;2023-06-19T02:13:03;0.00;;;0.00;;
12420;SDS011;6275;43.688;1.408;2023-06-19T02:15:30;0.00;;;0.00;;
12420;SDS011;6275;43.688;1.408;2023-06-19T02:17:58;0.00;;;0.00;;
12420;SDS011;6275;43.688;1.408;2023-06-19T02:20:25;0.00;;;0.00;;
12420;SDS011;6275;43.688;1.408;2023-06-19T02:22:52;0.00;;;0.00;;
12420;SDS011;6275;43.688;1.408;2023-06-19T02:25:20;0.00;;;0.00;;
12420;SDS011;6275;43.688;1.408;2023-06-19T02:27:47;0.00;;;0.00;;
12420;SDS011;6275;43.688;1.408;2023-06-19T02:30:14;0.00;;;0.00;;
12420;SDS011;6275;43.688;1.408;2023-06-19T02:32:42;0.00;;;0.00;;
12420;SDS011;6275;43.688;1.408;2023-06-19T02:35:10;0.00;;;0.00;;
12420;SDS011;6275;43.688;1.408;2023-06-19T02:37:38;0.00;;;0.00;;
12420;SDS011;6275;43.688;1.408;2023-06-19T02:40:05;0.00;;;0.00;;
12420;SDS011;6275;43.688;1.408;2023-06-19T02:42:33;0.00;;;0.00;;
12420;SDS011;6275;43.688;1.408;2023-06-19T02:45:01;0.00;;;0.00;;
12420;SDS011;6275;43.688;1.408;2023-06-19T02:47:32;0.00;;;0.00;;
12420;SDS011;6275;43.688;1.408;2023-06-19T02:49:59;0.00;;;0.00;;
12420;SDS011;6275;43.688;1.408;2023-06-19T02:52:27;0.00;;;0.00;;
12420;SDS011;6275;43.688;1.408;2023-06-19T02:54:55;0.00;;;0.00;;
12420;SDS011;6275;43.688;1.408;2023-06-19T02:57:22;0.00;;;0.00;;
12420;SDS011;6275;43.688;1.408;2023-06-19T02:59:49;0.00;;;0.00;;
12420;SDS011;6275;43.688;1.408;2023-06-19T03:02:17;0.00;;;0.00;;
12420;SDS011;6275;43.688;1.408;2023-06-19T03:04:44;0.00;;;0.00;;
12420;SDS011;6275;43.688;1.408;2023-06-19T03:07:12;0.00;;;0.00;;
12420;SDS011;6275;43.688;1.408;2023-06-19T03:09:40;0.00;;;0.00;;
12420;SDS011;6275;43.688;1.408;2023-06-19T03:12:08;0.00;;;0.00;;
12420;SDS011;6275;43.688;1.408;2023-06-19T03:14:35;0.00;;;0.00;;
12420;SDS011;6275;43.688;1.408;2023-06-19T03:17:03;0.00;;;0.00;;
12420;SDS011;6275;43.688;1.408;2023-06-19T03:19:31;0.00;;;0.00;;
12420;SDS011;6275;43.688;1.408;2023-06-19T03:21:58;0.00;;;0.00;;
12420;SDS011;6275;43.688;1.408;2023-06-19T03:24:26;0.00;;;0.00;;
12420;SDS011;6275;43.688;1.408;2023-06-19T03:26:53;0.00;;;0.00;;
12420;SDS011;6275;43.688;1.408;2023-06-19T03:29:20;0.00;;;0.00;;
12420;SDS011;6275;43.688;1.408;2023-06-19T03:31:48;0.00;;;0.00;;
12420;SDS011;6275;43.688;1.408;2023-06-19T03:34:16;0.00;;;0.00;;
12420;SDS011;6275;43.688;1.408;2023-06-19T03:36:43;0.00;;;0.00;;
12420;SDS011;6275;43.688;1.408;2023-06-19T03:39:11;0.00;;;0.00;;
12420;SDS011;6275;43.688;1.408;2023-06-19T03:41:38;0.00;;;0.00;;
12420;SDS011;6275;43.688;1.408;2023-06-19T03:44:05;0.00;;;0.00;;
12420;SDS011;6275;43.688;1.408;2023-06-19T03:46:33;0.00;;;0.00;;
12420;SDS011;6275;43.688;1.408;2023-06-19T03:49:00;0.00;;;0.00;;
12420;SDS011;6275;43.688;1.408;2023-06-19T03:51:29;0.00;;;0.00;;
12420;SDS011;6275;43.688;1.408;2023-06-19T03:53:56;0.10;;;0.10;;
12420;SDS011;6275;43.688;1.408;2023-06-19T03:56:24;0.00;;;0.00;;
12420;SDS011;6275;43.688;1.408;2023-06-19T03:58:51;0.10;;;0.10;;
12420;SDS011;6275;43.688;1.408;2023-06-19T04:01:18;0.00;;;0.00;;
12420;SDS011;6275;43.688;1.408;2023-06-19T04:03:46;0.07;;;0.07;;
12420;SDS011;6275;43.688;1.408;2023-06-19T04:06:13;0.10;;;0.10;;
12420;SDS011;6275;43.688;1.408;2023-06-19T04:08:40;0.10;;;0.10;;
12420;SDS011;6275;43.688;1.408;2023-06-19T04:11:08;0.10;;;0.10;;
12420;SDS011;6275;43.688;1.408;2023-06-19T04:13:35;0.10;;;0.10;;
12420;SDS011;6275;43.688;1.408;2023-06-19T04:16:03;0.10;;;0.10;;
12420;SDS011;6275;43.688;1.408;2023-06-19T04:18:30;0.10;;;0.10;;
12420;SDS011;6275;43.688;1.408;2023-06-19T04:20:57;0.05;;;0.05;;
12420;SDS011;6275;43.688;1.408;2023-06-19T04:23:25;0.00;;;0.00;;
12420;SDS011;6275;43.688;1.408;2023-06-19T04:25:52;0.00;;;0.00;;
12420;SDS011;6275;43.688;1.408;2023-06-19T04:28:20;0.00;;;0.00;;
12420;SDS011;6275;43.688;1.408;2023-06-19T04:30:47;0.03;;;0.03;;
12420;SDS011;6275;43.688;1.408;2023-06-19T04:33:15;0.10;;;0.10;;
12420;SDS011;6275;43.688;1.408;2023-06-19T04:35:42;0.00;;;0.00;;
12420;SDS011;6275;43.688;1.408;2023-06-19T04:38:09;0.10;;;0.10;;
12420;SDS011;6275;43.688;1.408;2023-06-19T04:40:41;0.10;;;0.10;;
12420;SDS011;6275;43.688;1.408;2023-06-19T04:43:09;0.10;;;0.10;;
12420;SDS011;6275;43.688;1.408;2023-06-19T04:45:36;0.00;;;0.00;;
12420;SDS011;6275;43.688;1.408;2023-06-19T04:48:04;0.10;;;0.10;;
12420;SDS011;6275;43.688;1.408;2023-06-19T04:50:31;0.00;;;0.00;;
12420;SDS011;6275;43.688;1.408;2023-06-19T04:52:59;0.10;;;0.10;;
12420;SDS011;6275;43.688;1.408;2023-06-19T04:55:26;0.10;;;0.10;;
12420;SDS011;6275;43.688;1.408;2023-06-19T04:57:53;0.10;;;0.10;;
12420;SDS011;6275;43.688;1.408;2023-06-19T05:00:21;0.00;;;0.00;;
12420;SDS011;6275;43.688;1.408;2023-06-19T05:02:50;0.13;;;0.13;;
12420;SDS011;6275;43.688;1.408;2023-06-19T05:05:17;0.10;;;0.10;;
12420;SDS011;6275;43.688;1.408;2023-06-19T05:07:49;0.10;;;0.10;;
12420;SDS011;6275;43.688;1.408;2023-06-19T05:10:17;0.10;;;0.10;;
12420;SDS011;6275;43.688;1.408;2023-06-19T05:12:45;0.10;;;0.10;;
12420;SDS011;6275;43.688;1.408;2023-06-19T05:15:13;0.10;;;0.10;;
12420;SDS011;6275;43.688;1.408;2023-06-19T05:17:40;0.10;;;0.10;;
12420;SDS011;6275;43.688;1.408;2023-06-19T05:20:08;0.10;;;0.10;;
12420;SDS011;6275;43.688;1.408;2023-06-19T05:22:35;0.10;;;0.10;;
12420;SDS011;6275;43.688;1.408;2023-06-19T05:25:03;0.00;;;0.00;;
12420;SDS011;6275;43.688;1.408;2023-06-19T05:27:30;0.10;;;0.10;;
12420;SDS011;6275;43.688;1.408;2023-06-19T05:29:58;0.10;;;0.10;;
12420;SDS011;6275;43.688;1.408;2023-06-19T05:32:25;0.10;;;0.10;;
12420;SDS011;6275;43.688;1.408;2023-06-19T05:34:54;0.00;;;0.00;;
12420;SDS011;6275;43.688;1.408;2023-06-19T05:37:21;0.10;;;0.10;;
12420;SDS011;6275;43.688;1.408;2023-06-19T05:39:48;0.10;;;0.10;;
12420;SDS011;6275;43.688;1.408;2023-06-19T05:42:16;0.00;;;0.00;;
12420;SDS011;6275;43.688;1.408;2023-06-19T05:44:43;0.10;;;0.10;;
12420;SDS011;6275;43.688;1.408;2023-06-19T05:47:10;0.10;;;0.10;;
12420;SDS011;6275;43.688;1.408;2023-06-19T05:49:38;0.10;;;0.10;;
12420;SDS011;6275;43.688;1.408;2023-06-19T05:52:07;0.00;;;0.00;;
12420;SDS011;6275;43.688;1.408;2023-06-19T05:54:35;0.10;;;0.10;;
12420;SDS011;6275;43.688;1.408;2023-06-19T05:57:02;0.00;;;0.00;;
12420;SDS011;6275;43.688;1.408;2023-06-19T05:59:30;0.00;;;0.00;;
12420;SDS011;6275;43.688;1.408;2023-06-19T06:01:57;0.00;;;0.00;;
12420;SDS011;6275;43.688;1.408;2023-06-19T06:04:24;0.00;;;0.00;;
12420;SDS011;6275;43.688;1.408;2023-06-19T06:06:52;0.03;;;0.03;;
12420;SDS011;6275;43.688;1.408;2023-06-19T06:09:19;0.00;;;0.00;;
12420;SDS011;6275;43.688;1.408;2023-06-19T06:11:47;0.00;;;0.00;;
12420;SDS011;6275;43.688;1.408;2023-06-19T06:14:14;0.00;;;0.00;;
12420;SDS011;6275;43.688;1.408;2023-06-19T06:16:42;0.00;;;0.00;;
12420;SDS011;6275;43.688;1.408;2023-06-19T06:19:09;0.10;;;0.10;;
12420;SDS011;6275;43.688;1.408;2023-06-19T06:21:36;0.00;;;0.00;;
12420;SDS011;6275;43.688;1.408;2023-06-19T06:24:04;0.03;;;0.03;;
12420;SDS011;6275;43.688;1.408;2023-06-19T06:26:31;0.10;;;0.10;;
12420;SDS011;6275;43.688;1.408;2023-06-19T06:28:59;0.10;;;0.10;;
12420;SDS011;6275;43.688;1.408;2023-06-19T06:31:27;0.10;;;0.10;;
12420;SDS011;6275;43.688;1.408;2023-06-19T06:33:54;0.10;;;0.10;;
12420;SDS011;6275;43.688;1.408;2023-06-19T06:36:21;0.10;;;0.10;;
12420;SDS011;6275;43.688;1.408;2023-06-19T06:39:01;0.10;;;0.10;;
12420;SDS011;6275;43.688;1.408;2023-06-19T06:41:29;0.08;;;0.08;;
12420;SDS011;6275;43.688;1.408;2023-06-19T06:43:56;0.10;;;0.10;;
12420;SDS011;6275;43.688;1.408;2023-06-19T06:46:23;0.10;;;0.10;;
12420;SDS011;6275;43.688;1.408;2023-06-19T06:48:51;0.10;;;0.10;;
12420;SDS011;6275;43.688;1.408;2023-06-19T06:51:19;0.00;;;0.00;;
12420;SDS011;6275;43.688;1.408;2023-06-19T06:53:48;0.10;;;0.10;;
12420;SDS011;6275;43.688;1.408;2023-06-19T06:56:15;0.10;;;0.10;;
12420;SDS011;6275;43.688;1.408;2023-06-19T06:58:43;0.10;;;0.10;;
12420;SDS011;6275;43.688;1.408;2023-06-19T07:01:12;0.10;;;0.10;;
12420;SDS011;6275;43.688;1.408;2023-06-19T07:03:40;0.10;;;0.10;;
12420;SDS011;6275;43.688;1.408;2023-06-19T07:06:07;0.05;;;0.05;;
12420;SDS011;6275;43.688;1.408;2023-06-19T07:08:34;0.10;;;0.10;;
12420;SDS011;6275;43.688;1.408;2023-06-19T07:11:01;0.10;;;0.10;;
12420;SDS011;6275;43.688;1.408;2023-06-19T07:13:29;0.10;;;0.10;;
12420;SDS011;6275;43.688;1.408;2023-06-19T07:15:56;0.10;;;0.10;;
12420;SDS011;6275;43.688;1.408;2023-06-19T07:18:24;0.10;;;0.10;;
12420;SDS011;6275;43.688;1.408;2023-06-19T07:20:52;0.10;;;0.10;;
12420;SDS011;6275;43.688;1.408;2023-06-19T07:23:19;0.10;;;0.10;;
12420;SDS011;6275;43.688;1.408;2023-06-19T07:25:46;0.10;;;0.10;;
12420;SDS011;6275;43.688;1.408;2023-06-19T07:28:14;0.10;;;0.10;;
12420;SDS011;6275;43.688;1.408;2023-06-19T07:30:42;0.10;;;0.10;;
12420;SDS011;6275;43.688;1.408;2023-06-19T07:33:10;0.00;;;0.00;;
12420;SDS011;6275;43.688;1.408;2023-06-19T07:35:38;0.10;;;0.10;;
12420;SDS011;6275;43.688;1.408;2023-06-19T07:38:05;0.10;;;0.10;;
12420;SDS011;6275;43.688;1.408;2023-06-19T07:40:32;0.10;;;0.10;;
12420;SDS011;6275;43.688;1.408;2023-06-19T07:43:00;0.10;;;0.10;;
12420;SDS011;6275;43.688;1.408;2023-06-19T07:45:27;0.10;;;0.10;;
12420;SDS011;6275;43.688;1.408;2023-06-19T07:47:55;0.10;;;0.10;;
12420;SDS011;6275;43.688;1.408;2023-06-19T07:50:22;0.10;;;0.10;;
12420;SDS011;6275;43.688;1.408;2023-06-19T07:52:53;0.10;;;0.10;;
12420;SDS011;6275;43.688;1.408;2023-06-19T07:55:20;0.10;;;0.10;;
12420;SDS011;6275;43.688;1.408;2023-06-19T07:57:47;0.10;;;0.10;;
12420;SDS011;6275;43.688;1.408;2023-06-19T08:00:15;0.10;;;0.10;;
12420;SDS011;6275;43.688;1.408;2023-06-19T08:02:42;0.10;;;0.10;;
12420;SDS011;6275;43.688;1.408;2023-06-19T08:05:10;0.10;;;0.10;;
12420;SDS011;6275;43.688;1.408;2023-06-19T08:07:38;0.10;;;0.10;;
12420;SDS011;6275;43.688;1.408;2023-06-19T08:10:05;0.10;;;0.10;;
12420;SDS011;6275;43.688;1.408;2023-06-19T08:12:43;0.10;;;0.10;;
12420;SDS011;6275;43.688;1.408;2023-06-19T08:15:11;0.10;;;0.10;;
12420;SDS011;6275;43.688;1.408;2023-06-19T08:17:40;0.10;;;0.10;;
12420;SDS011;6275;43.688;1.408;2023-06-19T08:20:07;0.10;;;0.10;;
12420;SDS011;6275;43.688;1.408;2023-06-19T08:22:36;0.10;;;0.10;;
12420;SDS011;6275;43.688;1.408;2023-06-19T08:25:04;0.10;;;0.10;;
12420;SDS011;6275;43.688;1.408;2023-06-19T08:27:31;0.10;;;0.10;;
12420;SDS011;6275;43.688;1.408;2023-06-19T08:29:58;0.10;;;0.10;;
12420;SDS011;6275;43.688;1.408;2023-06-19T08:32:26;0.10;;;0.10;;
12420;SDS011;6275;43.688;1.408;2023-06-19T08:34:53;0.10;;;0.10;;
12420;SDS011;6275;43.688;1.408;2023-06-19T08:37:21;0.10;;;0.10;;
12420;SDS011;6275;43.688;1.408;2023-06-19T08:39:48;0.17;;;0.17;;
12420;SDS011;6275;43.688;1.408;2023-06-19T08:42:15;0.10;;;0.10;;
12420;SDS011;6275;43.688;1.408;2023-06-19T08:44:43;0.10;;;0.10;;
12420;SDS011;6275;43.688;1.408;2023-06-19T08:47:10;0.10;;;0.10;;
12420;SDS011;6275;43.688;1.408;2023-06-19T08:49:37;0.10;;;0.10;;
12420;SDS011;6275;43.688;1.408;2023-06-19T08:52:05;0.10;;;0.10;;
12420;SDS011;6275;43.688;1.408;2023-06-19T08:54:32;0.10;;;0.10;;
12420;SDS011;6275;43.688;1.408;2023-06-19T08:57:03;0.10;;;0.10;;
12420;SDS011;6275;43.688;1.408;2023-06-19T08:59:30;0.10;;;0.10;;
12420;SDS011;6275;43.688;1.408;2023-06-19T09:01:58;0.10;;;0.10;;
12420;SDS011;6275;43.688;1.408;2023-06-19T09:04:26;0.10;;;0.10;;
12420;SDS011;6275;43.688;1.408;2023-06-19T09:07:00;0.10;;;0.10;;
12420;SDS011;6275;43.688;1.408;2023-06-19T09:09:29;0.10;;;0.10;;
12420;SDS011;6275;43.688;1.408;2023-06-19T09:12:03;0.10;;;0.10;;
12420;SDS011;6275;43.688;1.408;2023-06-19T09:17:05;0.10;;;0.10;;
12420;SDS011;6275;43.688;1.408;2023-06-19T09:19:35;0.10;;;0.10;;
12420;SDS011;6275;43.688;1.408;2023-06-19T09:22:07;0.10;;;0.10;;
12420;SDS011;6275;43.688;1.408;2023-06-19T09:24:35;0.10;;;0.10;;
12420;SDS011;6275;43.688;1.408;2023-06-19T09:27:10;0.10;;;0.10;;
12420;SDS011;6275;43.688;1.408;2023-06-19T09:29:40;0.10;;;0.10;;
12420;SDS011;6275;43.688;1.408;2023-06-19T09:32:15;0.10;;;0.10;;
12420;SDS011;6275;43.688;1.408;2023-06-19T09:34:42;0.10;;;0.10;;
12420;SDS011;6275;43.688;1.408;2023-06-19T09:37:10;0.10;;;0.10;;
12420;SDS011;6275;43.688;1.408;2023-06-19T09:39:37;0.10;;;0.10;;
12420;SDS011;6275;43.688;1.408;2023-06-19T09:42:09;0.10;;;0.10;;
12420;SDS011;6275;43.688;1.408;2023-06-19T09:44:40;0.10;;;0.10;;
12420;SDS011;6275;43.688;1.408;2023-06-19T09:47:19;0.10;;;0.10;;
12420;SDS011;6275;43.688;1.408;2023-06-19T09:49:50;0.10;;;0.10;;
12420;SDS011;6275;43.688;1.408;2023-06-19T09:52:20;0.10;;;0.10;;
12420;SDS011;6275;43.688;1.408;2023-06-19T09:54:52;0.10;;;0.10;;
12420;SDS011;6275;43.688;1.408;2023-06-19T09:57:20;0.10;;;0.10;;
12420;SDS011;6275;43.688;1.408;2023-06-19T09:59:48;0.10;;;0.10;;
12420;SDS011;6275;43.688;1.408;2023-06-19T10:02:17;0.10;;;0.10;;
12420;SDS011;6275;43.688;1.408;2023-06-19T10:04:53;0.10;;;0.10;;
12420;SDS011;6275;43.688;1.408;2023-06-19T10:07:23;0.10;;;0.10;;
12420;SDS011;6275;43.688;1.408;2023-06-19T10:10:00;0.10;;;0.10;;
12420;SDS011;6275;43.688;1.408;2023-06-19T10:12:41;0.10;;;0.10;;
12420;SDS011;6275;43.688;1.408;2023-06-19T10:17:49;0.10;;;0.10;;
12420;SDS011;6275;43.688;1.408;2023-06-19T10:20:24;0.10;;;0.10;;
12420;SDS011;6275;43.688;1.408;2023-06-19T10:22:53;0.10;;;0.10;;
12420;SDS011;6275;43.688;1.408;2023-06-19T10:25:21;0.00;;;0.00;;
12420;SDS011;6275;43.688;1.408;2023-06-19T10:27:49;0.10;;;0.10;;
12420;SDS011;6275;43.688;1.408;2023-06-19T10:30:21;0.10;;;0.10;;
12420;SDS011;6275;43.688;1.408;2023-06-19T10:32:48;0.10;;;0.10;;
12420;SDS011;6275;43.688;1.408;2023-06-19T10:35:16;0.10;;;0.10;;
12420;SDS011;6275;43.688;1.408;2023-06-19T10:37:44;0.10;;;0.10;;
12420;SDS011;6275;43.688;1.408;2023-06-19T10:40:11;0.10;;;0.10;;
12420;SDS011;6275;43.688;1.408;2023-06-19T10:42:39;0.10;;;0.10;;
12420;SDS011;6275;43.688;1.408;2023-06-19T10:45:10;0.10;;;0.10;;
12420;SDS011;6275;43.688;1.408;2023-06-19T10:47:39;0.05;;;0.05;;
12420;SDS011;6275;43.688;1.408;2023-06-19T10:50:13;0.10;;;0.10;;
12420;SDS011;6275;43.688;1.408;2023-06-19T10:52:42;0.10;;;0.10;;
12420;SDS011;6275;43.688;1.408;2023-06-19T10:55:10;0.10;;;0.10;;
12420;SDS011;6275;43.688;1.408;2023-06-19T10:57:38;0.10;;;0.10;;
12420;SDS011;6275;43.688;1.408;2023-06-19T11:00:07;0.10;;;0.10;;
12420;SDS011;6275;43.688;1.408;2023-06-19T11:02:39;0.10;;;0.10;;
12420;SDS011;6275;43.688;1.408;2023-06-19T11:05:10;0.10;;;0.10;;
12420;SDS011;6275;43.688;1.408;2023-06-19T11:07:38;0.10;;;0.10;;
12420;SDS011;6275;43.688;1.408;2023-06-19T11:10:06;0.10;;;0.10;;
12420;SDS011;6275;43.688;1.408;2023-06-19T11:12:33;0.10;;;0.10;;
12420;SDS011;6275;43.688;1.408;2023-06-19T11:15:04;0.10;;;0.10;;
12420;SDS011;6275;43.688;1.408;2023-06-19T11:17:32;0.10;;;0.10;;
12420;SDS011;6275;43.688;1.408;2023-06-19T11:19:59;0.10;;;0.10;;
12420;SDS011;6275;43.688;1.408;2023-06-19T11:22:39;0.05;;;0.05;;
12420;SDS011;6275;43.688;1.408;2023-06-19T11:25:07;0.15;;;0.15;;
12420;SDS011;6275;43.688;1.408;2023-06-19T11:27:37;0.10;;;0.10;;
12420;SDS011;6275;43.688;1.408;2023-06-19T11:30:05;0.10;;;0.10;;
12420;SDS011;6275;43.688;1.408;2023-06-19T11:32:34;0.10;;;0.10;;
12420;SDS011;6275;43.688;1.408;2023-06-19T11:35:11;0.10;;;0.10;;
12420;SDS011;6275;43.688;1.408;2023-06-19T11:37:39;0.10;;;0.10;;
12420;SDS011;6275;43.688;1.408;2023-06-19T11:40:07;0.10;;;0.10;;
12420;SDS011;6275;43.688;1.408;2023-06-19T11:42:47;0.10;;;0.10;;
12420;SDS011;6275;43.688;1.408;2023-06-19T11:45:15;0.10;;;0.10;;
12420;SDS011;6275;43.688;1.408;2023-06-19T11:47:43;0.10;;;0.10;;
12420;SDS011;6275;43.688;1.408;2023-06-19T11:50:12;0.10;;;0.10;;
12420;SDS011;6275;43.688;1.408;2023-06-19T11:52:39;0.10;;;0.10;;
12420;SDS011;6275;43.688;1.408;2023-06-19T11:55:07;0.10;;;0.10;;
12420;SDS011;6275;43.688;1.408;2023-06-19T11:57:34;0.10;;;0.10;;
12420;SDS011;6275;43.688;1.408;2023-06-19T12:00:02;0.10;;;0.10;;
12420;SDS011;6275;43.688;1.408;2023-06-19T12:02:35;0.10;;;0.10;;
12420;SDS011;6275;43.688;1.408;2023-06-19T12:05:03;0.10;;;0.10;;
12420;SDS011;6275;43.688;1.408;2023-06-19T12:07:30;0.10;;;0.10;;
12420;SDS011;6275;43.688;1.408;2023-06-19T12:09:57;0.10;;;0.10;;
12420;SDS011;6275;43.688;1.408;2023-06-19T12:12:27;0.10;;;0.10;;
12420;SDS011;6275;43.688;1.408;2023-06-19T12:14:55;0.00;;;0.00;;
12420;SDS011;6275;43.688;1.408;2023-06-19T12:17:23;0.10;;;0.10;;
12420;SDS011;6275;43.688;1.408;2023-06-19T12:19:50;0.10;;;0.10;;
12420;SDS011;6275;43.688;1.408;2023-06-19T12:22:19;0.10;;;0.10;;
12420;SDS011;6275;43.688;1.408;2023-06-19T12:24:46;0.00;;;0.00;;
12420;SDS011;6275;43.688;1.408;2023-06-19T12:27:14;0.00;;;0.00;;
12420;SDS011;6275;43.688;1.408;2023-06-19T12:29:41;0.03;;;0.03;;
12420;SDS011;6275;43.688;1.408;2023-06-19T12:32:08;0.10;;;0.10;;
12420;SDS011;6275;43.688;1.408;2023-06-19T12:34:36;0.00;;;0.00;;
12420;SDS011;6275;43.688;1.408;2023-06-19T12:37:03;0.10;;;0.10;;
12420;SDS011;6275;43.688;1.408;2023-06-19T12:39:31;0.10;;;0.10;;
12420;SDS011;6275;43.688;1.408;2023-06-19T12:41:59;0.10;;;0.10;;
12420;SDS011;6275;43.688;1.408;2023-06-19T12:44:26;0.10;;;0.10;;
12420;SDS011;6275;43.688;1.408;2023-06-19T12:46:53;0.10;;;0.10;;
12420;SDS011;6275;43.688;1.408;2023-06-19T12:49:21;0.10;;;0.10;;
12420;SDS011;6275;43.688;1.408;2023-06-19T12:51:48;0.10;;;0.10;;
12420;SDS011;6275;43.688;1.408;2023-06-19T12:54:18;0.10;;;0.10;;
12420;SDS011;6275;43.688;1.408;2023-06-19T12:56:46;0.08;;;0.08;;
12420;SDS011;6275;43.688;1.408;2023-06-19T12:59:13;0.10;;;0.10;;
12420;SDS011;6275;43.688;1.408;2023-06-19T13:01:41;0.10;;;0.10;;
12420;SDS011;6275;43.688;1.408;2023-06-19T13:04:09;0.10;;;0.10;;
12420;SDS011;6275;43.688;1.408;2023-06-19T13:06:37;0.10;;;0.10;;
12420;SDS011;6275;43.688;1.408;2023-06-19T13:09:05;0.10;;;0.10;;
12420;SDS011;6275;43.688;1.408;2023-06-19T13:11:32;0.10;;;0.10;;
12420;SDS011;6275;43.688;1.408;2023-06-19T13:14:01;0.10;;;0.10;;
12420;SDS011;6275;43.688;1.408;2023-06-19T13:16:28;0.10;;;0.10;;
12420;SDS011;6275;43.688;1.408;2023-06-19T13:19:06;0.10;;;0.10;;
12420;SDS011;6275;43.688;1.408;2023-06-19T13:21:33;0.10;;;0.10;;
12420;SDS011;6275;43.688;1.408;2023-06-19T13:24:02;0.10;;;0.10;;
12420;SDS011;6275;43.688;1.408;2023-06-19T13:26:29;0.10;;;0.10;;
12420;SDS011;6275;43.688;1.408;2023-06-19T13:28:57;0.10;;;0.10;;
12420;SDS011;6275;43.688;1.408;2023-06-19T13:31:25;0.10;;;0.10;;
12420;SDS011;6275;43.688;1.408;2023-06-19T13:33:52;0.10;;;0.10;;
12420;SDS011;6275;43.688;1.408;2023-06-19T13:36:20;0.10;;;0.10;;
12420;SDS011;6275;43.688;1.408;2023-06-19T13:38:47;0.10;;;0.10;;
12420;SDS011;6275;43.688;1.408;2023-06-19T13:41:14;0.10;;;0.10;;
12420;SDS011;6275;43.688;1.408;2023-06-19T13:43:42;0.10;;;0.10;;
12420;SDS011;6275;43.688;1.408;2023-06-19T13:46:12;0.10;;;0.10;;
12420;SDS011;6275;43.688;1.408;2023-06-19T13:48:39;0.10;;;0.10;;
12420;SDS011;6275;43.688;1.408;2023-06-19T13:51:06;0.10;;;0.10;;
12420;SDS011;6275;43.688;1.408;2023-06-19T13:53:34;0.10;;;0.10;;
12420;SDS011;6275;43.688;1.408;2023-06-19T13:56:01;0.10;;;0.10;;
12420;SDS011;6275;43.688;1.408;2023-06-19T13:58:29;0.10;;;0.10;;
12420;SDS011;6275;43.688;1.408;2023-06-19T14:00:56;0.10;;;0.10;;
12420;SDS011;6275;43.688;1.408;2023-06-19T14:03:23;0.10;;;0.10;;
12420;SDS011;6275;43.688;1.408;2023-06-19T14:05:51;0.10;;;0.10;;
12420;SDS011;6275;43.688;1.408;2023-06-19T14:08:18;0.10;;;0.10;;
12420;SDS011;6275;43.688;1.408;2023-06-19T14:10:46;0.10;;;0.10;;
12420;SDS011;6275;43.688;1.408;2023-06-19T14:13:13;0.10;;;0.10;;
12420;SDS011;6275;43.688;1.408;2023-06-19T14:15:40;0.10;;;0.10;;
12420;SDS011;6275;43.688;1.408;2023-06-19T14:18:08;0.10;;;0.10;;
12420;SDS011;6275;43.688;1.408;2023-06-19T14:20:35;0.10;;;0.10;;
12420;SDS011;6275;43.688;1.408;2023-06-19T14:23:03;0.10;;;0.10;;
12420;SDS011;6275;43.688;1.408;2023-06-19T14:25:30;0.10;;;0.10;;
12420;SDS011;6275;43.688;1.408;2023-06-19T14:27:57;0.10;;;0.10;;
12420;SDS011;6275;43.688;1.408;2023-06-19T14:30:25;0.10;;;0.10;;
12420;SDS011;6275;43.688;1.408;2023-06-19T14:32:52;0.10;;;0.10;;
12420;SDS011;6275;43.688;1.408;2023-06-19T14:35:20;0.10;;;0.10;;
12420;SDS011;6275;43.688;1.408;2023-06-19T14:37:47;0.10;;;0.10;;
12420;SDS011;6275;43.688;1.408;2023-06-19T14:40:15;0.10;;;0.10;;
12420;SDS011;6275;43.688;1.408;2023-06-19T14:42:42;0.10;;;0.10;;
12420;SDS011;6275;43.688;1.408;2023-06-19T14:45:10;0.10;;;0.10;;
12420;SDS011;6275;43.688;1.408;2023-06-19T14:47:37;0.10;;;0.10;;
12420;SDS011;6275;43.688;1.408;2023-06-19T14:50:05;0.10;;;0.10;;
12420;SDS011;6275;43.688;1.408;2023-06-19T14:52:32;0.10;;;0.10;;
12420;SDS011;6275;43.688;1.408;2023-06-19T14:54:59;0.10;;;0.10;;
12420;SDS011;6275;43.688;1.408;2023-06-19T14:57:27;0.10;;;0.10;;
12420;SDS011;6275;43.688;1.408;2023-06-19T14:59:54;0.10;;;0.10;;
12420;SDS011;6275;43.688;1.408;2023-06-19T15:02:21;0.10;;;0.10;;
12420;SDS011;6275;43.688;1.408;2023-06-19T15:04:49;0.10;;;0.10;;
12420;SDS011;6275;43.688;1.408;2023-06-19T15:07:31;0.10;;;0.10;;
12420;SDS011;6275;43.688;1.408;2023-06-19T15:09:59;0.10;;;0.10;;
12420;SDS011;6275;43.688;1.408;2023-06-19T15:12:26;0.10;;;0.10;;
12420;SDS011;6275;43.688;1.408;2023-06-19T15:14:54;0.10;;;0.10;;